createdAt,value
2017-02-20T00:00:54.839Z,75.15
2017-02-20T00:02:05.565Z,75.53
2017-02-20T00:03:15.873Z,75.34
2017-02-20T00:04:26.628Z,75.15
2017-02-20T00:05:37.347Z,75.05
2017-02-20T00:06:48.059Z,74.96
2017-02-20T00:07:58.785Z,74.87
2017-02-20T00:09:09.515Z,74.77
2017-02-20T00:10:20.252Z,74.96
2017-02-20T00:11:30.566Z,74.96
2017-02-20T00:12:41.265Z,74.96
2017-02-20T00:13:51.961Z,74.49
2017-02-20T00:15:02.673Z,74.3
2017-02-20T00:16:13.376Z,73.92
2017-02-20T00:17:24.082Z,74.01
2017-02-20T00:18:34.811Z,73.82
2017-02-20T00:19:45.531Z,74.2
2017-02-20T00:20:56.247Z,74.39
2017-02-20T00:22:06.946Z,74.01
2017-02-20T00:23:17.240Z,75.05
2017-02-20T00:24:27.947Z,75.43
2017-02-20T00:25:38.651Z,75.15
2017-02-20T00:26:49.363Z,75.24
2017-02-20T00:28:00.076Z,75.43
2017-02-20T00:29:10.789Z,75.62
2017-02-20T00:30:21.089Z,75.72
2017-02-20T00:31:31.797Z,75.34
2017-02-20T00:32:42.515Z,75.34
2017-02-20T00:33:53.227Z,75.43
2017-02-20T00:35:03.968Z,75.05
2017-02-20T00:36:14.309Z,75.34
2017-02-20T00:37:25.019Z,75.05
2017-02-20T00:38:35.734Z,75.53
2017-02-20T00:39:46.453Z,75.34
2017-02-20T00:40:57.168Z,75.24
2017-02-20T00:42:07.889Z,75.53
2017-02-20T00:43:18.588Z,75.15
2017-02-20T00:44:29.312Z,75.24
2017-02-20T00:45:40.020Z,75.62
2017-02-20T00:46:50.750Z,75.43
2017-02-20T00:48:01.460Z,75.53
2017-02-20T00:49:12.170Z,75.81
2017-02-20T00:50:22.100Z,75.34
2017-02-20T00:51:32.811Z,75.24
2017-02-20T00:52:43.529Z,75.91
2017-02-20T00:53:54.253Z,76.1
2017-02-20T00:55:04.556Z,75.62
2017-02-20T00:56:14.872Z,76.48
2017-02-20T00:57:25.174Z,76.01
2017-02-20T00:58:35.883Z,76.57
2017-02-20T00:59:46.590Z,76.48
2017-02-20T01:00:57.293Z,76.76
2017-02-20T01:02:08.025Z,76.95
2017-02-20T01:03:18.332Z,76.57
2017-02-20T01:04:29.033Z,76.44
2017-02-20T01:05:39.755Z,77.01
2017-02-20T01:06:50.463Z,77.11
2017-02-20T01:08:01.197Z,76.95
2017-02-20T01:09:11.899Z,77.11
2017-02-20T01:10:21.852Z,77.24
2017-02-20T01:11:32.558Z,77.29
2017-02-20T01:12:43.268Z,76.95
2017-02-20T01:13:53.971Z,77.43
2017-02-20T01:15:04.677Z,77.43
2017-02-20T01:16:15.388Z,77.43
2017-02-20T01:17:26.099Z,77.33
2017-02-20T01:18:36.018Z,77.11
2017-02-20T01:19:46.731Z,77.05
2017-02-20T01:20:57.439Z,77.71
2017-02-20T01:22:07.770Z,77.48
2017-02-20T01:23:18.116Z,77.39
2017-02-20T01:24:28.435Z,77.58
2017-02-20T01:25:38.745Z,77.33
2017-02-20T01:26:49.458Z,77.05
2017-02-20T01:28:00.204Z,77.11
2017-02-20T01:29:10.916Z,77.05
2017-02-20T01:30:21.229Z,76.95
2017-02-20T01:31:31.924Z,77.14
2017-02-20T01:32:42.629Z,76.67
2017-02-20T01:33:53.342Z,76.76
2017-02-20T01:35:03.688Z,76.76
2017-02-20T01:36:14.388Z,76.95
2017-02-20T01:37:25.101Z,77.33
2017-02-20T01:38:35.804Z,76.95
2017-02-20T01:39:46.117Z,77.33
2017-02-20T01:40:56.818Z,77.43
2017-02-20T01:42:07.525Z,77.24
2017-02-20T01:43:17.433Z,77.43
2017-02-20T01:44:27.747Z,77.33
2017-02-20T01:45:38.447Z,77.24
2017-02-20T01:46:49.157Z,77.24
2017-02-20T01:47:59.861Z,77.01
2017-02-20T01:49:10.554Z,77.05
2017-02-20T01:50:20.850Z,76.95
2017-02-20T01:51:31.568Z,77.24
2017-02-20T01:52:41.901Z,76.95
2017-02-20T01:53:52.707Z,76.57
2017-02-20T01:55:03.424Z,76.57
2017-02-20T01:56:14.150Z,76.76
2017-02-20T01:57:24.463Z,76.67
2017-02-20T01:58:35.153Z,76.76
2017-02-20T01:59:45.858Z,76.57
2017-02-20T02:00:56.574Z,77.14
2017-02-20T02:02:07.267Z,76.86
2017-02-20T02:03:16.773Z,76.57
2017-02-20T02:04:27.084Z,76.57
2017-02-20T02:05:37.786Z,76.67
2017-02-20T02:06:48.474Z,76.57
2017-02-20T02:07:59.199Z,76.63
2017-02-20T02:09:09.921Z,76.39
2017-02-20T02:10:20.618Z,76.67
2017-02-20T02:11:31.318Z,76.76
2017-02-20T02:12:42.036Z,76.48
2017-02-20T02:13:52.738Z,76.01
2017-02-20T02:15:03.063Z,76.1
2017-02-20T02:16:13.762Z,75.81
2017-02-20T02:17:24.095Z,76.1
2017-02-20T02:18:34.788Z,76.57
2017-02-20T02:19:45.504Z,76.76
2017-02-20T02:20:56.202Z,76.57
2017-02-20T02:22:06.915Z,77.43
2017-02-20T02:23:16.818Z,78.28
2017-02-20T02:24:27.537Z,78.09
2017-02-20T02:25:38.251Z,78.53
2017-02-20T02:26:48.962Z,78.34
2017-02-20T02:27:59.281Z,78.43
2017-02-20T02:29:09.885Z,78.24
2017-02-20T02:30:20.197Z,78.72
2017-02-20T02:31:30.517Z,78.34
2017-02-20T02:32:41.228Z,78.05
2017-02-20T02:33:51.967Z,78.43
2017-02-20T02:35:02.683Z,78.24
2017-02-20T02:36:13.395Z,78.24
2017-02-20T02:37:23.303Z,78.15
2017-02-20T02:38:34.021Z,78.43
2017-02-20T02:39:44.730Z,78.62
2017-02-20T02:40:55.435Z,78.43
2017-02-20T02:42:05.756Z,78.53
2017-02-20T02:43:16.074Z,78.19
2017-02-20T02:44:26.801Z,77.71
2017-02-20T02:45:37.510Z,77.81
2017-02-20T02:46:48.213Z,78.28
2017-02-20T02:47:58.908Z,78.28
2017-02-20T02:49:09.623Z,78.38
2017-02-20T02:50:20.332Z,77.62
2017-02-20T02:51:31.046Z,78.19
2017-02-20T02:52:41.737Z,78.15
2017-02-20T02:53:52.436Z,77.86
2017-02-20T02:55:03.155Z,78.53
2017-02-20T02:56:13.876Z,78.05
2017-02-20T02:57:24.576Z,78.24
2017-02-20T02:58:35.267Z,78.43
2017-02-20T02:59:45.975Z,78.28
2017-02-20T03:00:56.319Z,78.24
2017-02-20T03:02:07.017Z,78.24
2017-02-20T03:03:17.333Z,78.24
2017-02-20T03:04:27.648Z,78.28
2017-02-20T03:05:38.354Z,78.24
2017-02-20T03:06:49.077Z,78.34
2017-02-20T03:07:59.822Z,78.24
2017-02-20T03:09:10.113Z,78.72
2017-02-20T03:10:20.419Z,78.34
2017-02-20T03:11:31.121Z,78.34
2017-02-20T03:12:41.835Z,78.38
2017-02-20T03:13:52.533Z,78.24
2017-02-20T03:15:03.263Z,78.75
2017-02-20T03:16:13.588Z,78.05
2017-02-20T03:17:24.286Z,78.15
2017-02-20T03:18:35.038Z,78.34
2017-02-20T03:19:45.763Z,78.34
2017-02-20T03:20:56.078Z,78.38
2017-02-20T03:22:06.792Z,78.47
2017-02-20T03:23:16.735Z,78.38
2017-02-20T03:24:27.478Z,78.15
2017-02-20T03:25:38.200Z,78.53
2017-02-20T03:26:48.943Z,78.05
2017-02-20T03:28:00.005Z,78.24
2017-02-20T03:29:10.320Z,78.24
2017-02-20T03:30:21.016Z,78.24
2017-02-20T03:31:31.714Z,78.24
2017-02-20T03:32:42.423Z,78.62
2017-02-20T03:33:53.128Z,78.34
2017-02-20T03:35:03.848Z,78.62
2017-02-20T03:36:13.765Z,78.43
2017-02-20T03:37:24.489Z,78.81
2017-02-20T03:38:35.216Z,79.38
2017-02-20T03:39:49.527Z,79.28
2017-02-20T03:41:00.256Z,79.66
2017-02-20T03:42:10.564Z,79.76
2017-02-20T03:43:21.263Z,79.28
2017-02-20T03:44:31.968Z,79.76
2017-02-20T03:45:42.696Z,80.04
2017-02-20T03:46:53.395Z,80.04
2017-02-20T03:48:03.313Z,80.24
2017-02-20T03:49:14.037Z,80.14
2017-02-20T03:50:24.744Z,79.76
2017-02-20T03:51:35.477Z,80.33
2017-02-20T03:52:46.197Z,80.24
2017-02-20T03:53:56.899Z,80.24
2017-02-20T03:55:07.615Z,80.14
2017-02-20T03:56:17.943Z,80.14
2017-02-20T03:57:27.862Z,80.04
2017-02-20T03:58:38.570Z,80.14
2017-02-20T03:59:49.276Z,79.85
2017-02-20T04:00:59.986Z,79.95
2017-02-20T04:02:10.713Z,79.85
2017-02-20T04:03:21.417Z,80.33
2017-02-20T04:04:32.130Z,80.33
2017-02-20T04:05:42.469Z,80.52
2017-02-20T04:06:53.179Z,80.33
2017-02-20T04:08:03.901Z,80.52
2017-02-20T04:09:14.617Z,81.18
2017-02-20T04:10:25.328Z,80.9
2017-02-20T04:11:36.043Z,80.9
2017-02-20T04:12:46.356Z,80.99
2017-02-20T04:13:57.055Z,80.71
2017-02-20T04:15:07.764Z,80.43
2017-02-20T04:16:17.685Z,80.33
2017-02-20T04:17:28.019Z,80.33
2017-02-20T04:18:38.723Z,80.99
2017-02-20T04:19:49.418Z,80.99
2017-02-20T04:20:59.324Z,81.56
2017-02-20T04:22:09.642Z,81.37
2017-02-20T04:23:19.946Z,81.18
2017-02-20T04:24:30.258Z,80.99
2017-02-20T04:25:40.960Z,81.37
2017-02-20T04:26:51.675Z,81.75
2017-02-20T04:28:02.369Z,81.56
2017-02-20T04:29:12.687Z,81.71
2017-02-20T04:30:23.021Z,81.81
2017-02-20T04:31:33.331Z,81.9
2017-02-20T04:32:44.043Z,82.18
2017-02-20T04:33:54.758Z,82.09
2017-02-20T04:35:05.450Z,82.09
2017-02-20T04:36:16.144Z,81.62
2017-02-20T04:37:26.886Z,81.94
2017-02-20T04:38:37.588Z,82.37
2017-02-20T04:39:48.292Z,82.37
2017-02-20T04:40:59.011Z,81.99
2017-02-20T04:42:09.718Z,82.28
2017-02-20T04:43:20.439Z,81.9
2017-02-20T04:44:31.167Z,82.09
2017-02-20T04:45:41.882Z,81.9
2017-02-20T04:46:52.590Z,82.18
2017-02-20T04:48:03.301Z,81.81
2017-02-20T04:49:13.631Z,82.94
2017-02-20T04:50:24.336Z,82.56
2017-02-20T04:51:35.051Z,82.66
2017-02-20T04:52:45.759Z,83.04
2017-02-20T04:53:56.465Z,83.13
2017-02-20T04:55:07.184Z,83.32
2017-02-20T04:56:17.499Z,83.32
2017-02-20T04:57:28.198Z,83.23
2017-02-20T04:58:38.909Z,83.23
2017-02-20T04:59:49.607Z,83.32
2017-02-20T05:01:00.324Z,83.42
2017-02-20T05:02:11.040Z,83.32
2017-02-20T05:03:21.759Z,83.23
2017-02-20T05:04:32.468Z,83.32
2017-02-20T05:05:42.777Z,83.13
2017-02-20T05:06:53.492Z,83.13
2017-02-20T05:08:04.186Z,83.23
2017-02-20T05:09:14.940Z,83.23
2017-02-20T05:10:25.656Z,83.23
2017-02-20T05:11:36.008Z,83.13
2017-02-20T05:12:46.715Z,83.23
2017-02-20T05:13:57.424Z,83.32
2017-02-20T05:15:08.129Z,83.23
2017-02-20T05:16:18.827Z,83.32
2017-02-20T05:17:29.535Z,83.61
2017-02-20T05:18:40.239Z,83.42
2017-02-20T05:19:50.952Z,83.23
2017-02-20T05:21:01.657Z,83.32
2017-02-20T05:22:12.375Z,83.32
2017-02-20T05:23:23.069Z,83.13
2017-02-20T05:24:33.780Z,83.13
2017-02-20T05:25:44.091Z,83.32
2017-02-20T05:26:54.803Z,83.13
2017-02-20T05:28:05.543Z,83.32
2017-02-20T05:29:15.847Z,83.32
2017-02-20T05:30:26.567Z,83.13
2017-02-20T05:31:36.866Z,83.04
2017-02-20T05:32:47.574Z,83.42
2017-02-20T05:33:58.293Z,83.23
2017-02-20T05:35:09.014Z,83.13
2017-02-20T05:36:19.713Z,83.23
2017-02-20T05:37:30.034Z,83.32
2017-02-20T05:38:40.733Z,83.32
2017-02-20T05:39:51.433Z,83.13
2017-02-20T05:41:02.127Z,82.85
2017-02-20T05:42:12.856Z,83.23
2017-02-20T05:43:23.187Z,83.61
2017-02-20T05:44:33.922Z,83.32
2017-02-20T05:45:44.626Z,83.13
2017-02-20T05:46:55.387Z,83.23
2017-02-20T05:48:06.095Z,83.8
2017-02-20T05:49:16.431Z,83.98
2017-02-20T05:50:27.131Z,83.7
2017-02-20T05:51:37.441Z,84.08
2017-02-20T05:52:48.139Z,83.98
2017-02-20T05:53:58.882Z,84.17
2017-02-20T05:55:09.601Z,84.36
2017-02-20T05:56:19.931Z,83.61
2017-02-20T05:57:30.645Z,84.36
2017-02-20T05:58:41.343Z,84.27
2017-02-20T05:59:52.050Z,83.98
2017-02-20T06:01:02.766Z,84.27
2017-02-20T06:02:13.066Z,84.17
2017-02-20T06:03:23.380Z,83.98
2017-02-20T06:04:34.076Z,84.17
2017-02-20T06:05:44.827Z,83.98
2017-02-20T06:06:55.553Z,84.36
2017-02-20T06:08:05.914Z,84.08
2017-02-20T06:09:16.233Z,84.08
2017-02-20T06:10:26.935Z,84.46
2017-02-20T06:11:37.632Z,83.8
2017-02-20T06:12:48.376Z,83.8
2017-02-20T06:13:59.096Z,84.27
2017-02-20T06:15:09.791Z,84.46
2017-02-20T06:16:20.123Z,84.36
2017-02-20T06:17:30.818Z,84.36
2017-02-20T06:18:41.538Z,85.03
2017-02-20T06:19:52.234Z,84.94
2017-02-20T06:21:02.936Z,84.7
2017-02-20T06:22:13.647Z,84.89
2017-02-20T06:23:23.961Z,84.99
2017-02-20T06:24:34.655Z,84.8
2017-02-20T06:25:44.953Z,85.65
2017-02-20T06:26:55.661Z,85.36
2017-02-20T06:28:06.373Z,85.55
2017-02-20T06:29:17.086Z,86.03
2017-02-20T06:30:27.802Z,86.03
2017-02-20T06:31:38.506Z,86.22
2017-02-20T06:32:49.231Z,86.12
2017-02-20T06:33:59.935Z,86.31
2017-02-20T06:35:10.240Z,86.6
2017-02-20T06:36:20.964Z,86.31
2017-02-20T06:37:31.673Z,86.41
2017-02-20T06:38:42.402Z,86.12
2017-02-20T06:39:53.108Z,86.5
2017-02-20T06:41:03.819Z,86.6
2017-02-20T06:42:14.113Z,86.69
2017-02-20T06:43:24.818Z,86.98
2017-02-20T06:44:35.519Z,86.79
2017-02-20T06:45:46.235Z,86.88
2017-02-20T06:46:56.950Z,87.07
2017-02-20T06:48:07.666Z,87.07
2017-02-20T06:49:17.618Z,86.79
2017-02-20T06:50:28.336Z,87.07
2017-02-20T06:51:39.048Z,87.26
2017-02-20T06:52:49.785Z,86.79
2017-02-20T06:54:00.504Z,86.88
2017-02-20T06:55:11.224Z,87.16
2017-02-20T06:56:21.935Z,87.26
2017-02-20T06:57:32.658Z,87.35
2017-02-20T06:58:43.367Z,86.79
2017-02-20T06:59:54.083Z,86.79
2017-02-20T07:01:04.421Z,86.41
2017-02-20T07:02:14.735Z,86.6
2017-02-20T07:03:24.669Z,87.26
2017-02-20T07:04:35.394Z,87.16
2017-02-20T07:05:46.117Z,87.54
2017-02-20T07:06:56.817Z,87.35
2017-02-20T07:08:07.134Z,87.73
2017-02-20T07:09:17.449Z,87.83
2017-02-20T07:10:28.152Z,87.78
2017-02-20T07:11:38.876Z,88.07
2017-02-20T07:12:49.584Z,87.98
2017-02-20T07:14:00.305Z,88.35
2017-02-20T07:15:10.648Z,88.82
2017-02-20T07:16:21.357Z,89.2
2017-02-20T07:17:32.064Z,89.01
2017-02-20T07:18:42.764Z,89.01
2017-02-20T07:19:53.493Z,89.68
2017-02-20T07:21:04.201Z,89.3
2017-02-20T07:22:14.903Z,89.39
2017-02-20T07:23:25.618Z,89.01
2017-02-20T07:24:36.319Z,89.11
2017-02-20T07:25:47.023Z,89.3
2017-02-20T07:26:57.740Z,88.73
2017-02-20T07:28:08.478Z,88.35
2017-02-20T07:29:19.202Z,88.54
2017-02-20T07:30:29.520Z,88.35
2017-02-20T07:31:39.841Z,87.88
2017-02-20T07:32:50.552Z,88.17
2017-02-20T07:34:01.278Z,88.35
2017-02-20T07:35:12.013Z,88.73
2017-02-20T07:36:22.337Z,88.73
2017-02-20T07:37:33.034Z,88.45
2017-02-20T07:38:43.740Z,88.21
2017-02-20T07:39:54.442Z,88.07
2017-02-20T07:41:05.154Z,88.3
2017-02-20T07:42:15.091Z,88.11
2017-02-20T07:43:25.816Z,88.3
2017-02-20T07:44:36.126Z,88.02
2017-02-20T07:45:46.838Z,87.73
2017-02-20T07:46:57.572Z,87.92
2017-02-20T07:48:07.891Z,87.83
2017-02-20T07:49:17.817Z,87.98
2017-02-20T07:50:28.526Z,88.17
2017-02-20T07:51:38.445Z,88.45
2017-02-20T07:52:49.140Z,88.54
2017-02-20T07:53:59.850Z,88.82
2017-02-20T07:55:10.566Z,88.82
2017-02-20T07:56:20.872Z,89.53
2017-02-20T07:57:31.598Z,89.2
2017-02-20T07:58:42.320Z,88.59
2017-02-20T07:59:53.020Z,88.3
2017-02-20T08:01:03.750Z,88.3
2017-02-20T08:02:14.475Z,88.3
2017-02-20T08:03:25.196Z,88.11
2017-02-20T08:04:35.900Z,88.4
2017-02-20T08:05:46.612Z,88.68
2017-02-20T08:06:57.330Z,88.59
2017-02-20T08:08:08.071Z,88.49
2017-02-20T08:09:18.381Z,88.49
2017-02-20T08:10:29.098Z,88.68
2017-02-20T08:11:39.830Z,88.02
2017-02-20T08:12:50.538Z,88.02
2017-02-20T08:14:00.850Z,88.21
2017-02-20T08:15:11.554Z,87.92
2017-02-20T08:16:21.871Z,87.54
2017-02-20T08:17:32.184Z,87.92
2017-02-20T08:18:42.505Z,88.11
2017-02-20T08:19:53.199Z,88.59
2017-02-20T08:21:03.910Z,88.78
2017-02-20T08:22:14.237Z,87.92
2017-02-20T08:23:24.557Z,88.68
2017-02-20T08:24:35.263Z,88.02
2017-02-20T08:25:45.568Z,88.11
2017-02-20T08:26:56.257Z,88.3
2017-02-20T08:28:06.574Z,88.02
2017-02-20T08:29:16.878Z,87.92
2017-02-20T08:30:27.600Z,87.54
2017-02-20T08:31:38.324Z,87.83
2017-02-20T08:32:49.064Z,87.26
2017-02-20T08:33:59.806Z,87.92
2017-02-20T08:35:10.110Z,87.92
2017-02-20T08:36:20.818Z,88.3
2017-02-20T08:37:31.538Z,88.21
2017-02-20T08:38:41.858Z,88.4
2017-02-20T08:39:52.169Z,88.4
2017-02-20T08:41:02.888Z,88.3
2017-02-20T08:42:13.199Z,88.21
2017-02-20T08:43:23.899Z,88.4
2017-02-20T08:44:34.621Z,88.11
2017-02-20T08:45:45.315Z,88.02
2017-02-20T08:46:56.036Z,88.11
2017-02-20T08:48:06.744Z,88.02
2017-02-20T08:49:17.450Z,88.59
2017-02-20T08:50:28.165Z,88.4
2017-02-20T08:51:38.866Z,88.4
2017-02-20T08:52:49.575Z,88.3
2017-02-20T08:54:00.290Z,88.21
2017-02-20T08:55:10.222Z,88.11
2017-02-20T08:56:20.932Z,87.54
2017-02-20T08:57:31.239Z,87.68
2017-02-20T08:58:41.965Z,87.21
2017-02-20T08:59:52.666Z,86.55
2017-02-20T09:01:03.379Z,86.55
2017-02-20T09:02:13.726Z,86.16
2017-02-20T09:03:24.437Z,85.78
2017-02-20T09:04:35.182Z,86.07
2017-02-20T09:05:45.885Z,85.6
2017-02-20T09:06:56.608Z,85.88
2017-02-20T09:08:07.314Z,86.45
2017-02-20T09:09:18.057Z,86.45
2017-02-20T09:10:28.357Z,86.83
2017-02-20T09:11:39.081Z,87.02
2017-02-20T09:12:49.790Z,87.12
2017-02-20T09:14:00.497Z,87.77
2017-02-20T09:15:10.409Z,87.87
2017-02-20T09:16:21.124Z,87.68
2017-02-20T09:17:31.826Z,88.3
2017-02-20T09:18:42.559Z,89.15
2017-02-20T09:19:52.876Z,89.91
2017-02-20T09:21:03.603Z,89.15
2017-02-20T09:22:14.326Z,89.53
2017-02-20T09:23:25.053Z,89.53
2017-02-20T09:24:35.785Z,89.91
2017-02-20T09:25:45.698Z,90.29
2017-02-20T09:26:55.214Z,90.39
2017-02-20T09:28:05.918Z,89.72
2017-02-20T09:29:16.229Z,89.15
2017-02-20T09:30:26.943Z,89.91
2017-02-20T09:31:37.639Z,89.91
2017-02-20T09:32:48.349Z,90.1
2017-02-20T09:33:59.066Z,90.01
2017-02-20T09:35:09.385Z,89.63
2017-02-20T09:36:19.698Z,89.91
2017-02-20T09:37:30.395Z,90.01
2017-02-20T09:38:40.744Z,89.63
2017-02-20T09:39:51.445Z,90.39
2017-02-20T09:41:01.780Z,90.48
2017-02-20T09:42:12.480Z,90.86
2017-02-20T09:43:22.804Z,90.86
2017-02-20T09:44:33.509Z,90.2
2017-02-20T09:45:44.229Z,91.62
2017-02-20T09:46:54.541Z,91.48
2017-02-20T09:48:05.239Z,92.43
2017-02-20T09:49:14.780Z,91.95
2017-02-20T09:50:25.106Z,92.8
2017-02-20T09:51:35.804Z,92.61
2017-02-20T09:52:46.512Z,92.61
2017-02-20T09:53:56.823Z,92.61
2017-02-20T09:55:07.523Z,92.61
2017-02-20T09:56:17.861Z,92.52
2017-02-20T09:57:28.586Z,92.43
2017-02-20T09:58:39.310Z,92.52
2017-02-20T09:59:50.020Z,92.24
2017-02-20T10:01:00.722Z,92.24
2017-02-20T10:02:11.043Z,91.9
2017-02-20T10:03:21.768Z,91.62
2017-02-20T10:04:32.484Z,91.14
2017-02-20T10:05:42.791Z,91.43
2017-02-20T10:06:53.494Z,91.62
2017-02-20T10:08:04.209Z,91.62
2017-02-20T10:09:14.914Z,91.81
2017-02-20T10:10:25.231Z,91.52
2017-02-20T10:11:35.552Z,91.86
2017-02-20T10:12:45.866Z,92.71
2017-02-20T10:13:56.178Z,93.08
2017-02-20T10:15:06.524Z,92.71
2017-02-20T10:16:16.827Z,92.52
2017-02-20T10:17:27.140Z,92.8
2017-02-20T10:18:37.852Z,92.8
2017-02-20T10:19:48.570Z,93.08
2017-02-20T10:20:58.872Z,93.75
2017-02-20T10:22:08.785Z,93.84
2017-02-20T10:23:19.480Z,93.94
2017-02-20T10:24:29.799Z,93.94
2017-02-20T10:25:40.121Z,93.08
2017-02-20T10:26:50.423Z,92.43
2017-02-20T10:28:00.733Z,92.61
2017-02-20T10:29:11.452Z,92.47
2017-02-20T10:30:22.170Z,92.57
2017-02-20T10:31:32.869Z,92.28
2017-02-20T10:32:43.191Z,91.43
2017-02-20T10:33:53.890Z,91.62
2017-02-20T10:35:04.601Z,92.09
2017-02-20T10:36:14.916Z,92
2017-02-20T10:37:25.638Z,91.62
2017-02-20T10:38:35.959Z,90.86
2017-02-20T10:39:46.663Z,91.05
2017-02-20T10:40:57.376Z,91.43
2017-02-20T10:42:08.075Z,90.91
2017-02-20T10:43:18.397Z,90.05
2017-02-20T10:44:28.704Z,89.86
2017-02-20T10:45:39.434Z,89.11
2017-02-20T10:46:49.732Z,89.29
2017-02-20T10:48:00.445Z,89.2
2017-02-20T10:49:10.789Z,89.48
2017-02-20T10:50:21.099Z,89.11
2017-02-20T10:51:31.817Z,89.67
2017-02-20T10:52:42.522Z,89.67
2017-02-20T10:53:53.237Z,89.11
2017-02-20T10:55:03.956Z,88.35
2017-02-20T10:56:14.273Z,88.35
2017-02-20T10:57:24.579Z,88.16
2017-02-20T10:58:35.293Z,87.87
2017-02-20T10:59:46.029Z,88.44
2017-02-20T11:00:55.933Z,88.82
2017-02-20T11:02:06.656Z,89.39
2017-02-20T11:03:17.399Z,88.92
2017-02-20T11:04:28.113Z,88.54
2017-02-20T11:05:38.430Z,88.87
2017-02-20T11:06:49.147Z,89.53
2017-02-20T11:07:59.858Z,89.82
2017-02-20T11:09:10.585Z,89.15
2017-02-20T11:10:20.892Z,89.53
2017-02-20T11:11:31.620Z,90.48
2017-02-20T11:12:41.931Z,91.24
2017-02-20T11:13:52.239Z,91.76
2017-02-20T11:15:02.948Z,91.76
2017-02-20T11:16:13.258Z,91.67
2017-02-20T11:17:23.610Z,91.76
2017-02-20T11:18:34.355Z,91.29
2017-02-20T11:19:44.665Z,91.19
2017-02-20T11:20:55.405Z,91.29
2017-02-20T11:22:06.110Z,91.86
2017-02-20T11:23:16.443Z,91.52
2017-02-20T11:24:27.218Z,91.38
2017-02-20T11:25:37.924Z,91.81
2017-02-20T11:26:48.248Z,91.38
2017-02-20T11:27:58.951Z,91.33
2017-02-20T11:29:09.271Z,91.57
2017-02-20T11:30:19.575Z,91.86
2017-02-20T11:31:30.288Z,92.43
2017-02-20T11:32:40.993Z,92.05
2017-02-20T11:33:51.303Z,91.48
2017-02-20T11:35:01.611Z,91.86
2017-02-20T11:36:12.357Z,91.9
2017-02-20T11:37:23.058Z,91.29
2017-02-20T11:38:33.777Z,91.9
2017-02-20T11:39:44.485Z,91.52
2017-02-20T11:40:55.187Z,91.95
2017-02-20T11:42:05.884Z,91.86
2017-02-20T11:43:16.597Z,92.43
2017-02-20T11:44:27.299Z,92.05
2017-02-20T11:45:37.998Z,92.05
2017-02-20T11:46:48.722Z,91.76
2017-02-20T11:47:59.033Z,92.19
2017-02-20T11:49:09.772Z,92.24
2017-02-20T11:50:20.490Z,92.09
2017-02-20T11:51:31.202Z,91.38
2017-02-20T11:52:41.922Z,91.71
2017-02-20T11:53:52.620Z,91.71
2017-02-20T11:55:03.334Z,91.33
2017-02-20T11:56:13.255Z,91.43
2017-02-20T11:57:23.164Z,91.62
2017-02-20T11:58:33.881Z,91.62
2017-02-20T11:59:44.597Z,91.62
2017-02-20T12:00:54.933Z,91.62
2017-02-20T12:02:05.275Z,91.33
2017-02-20T12:03:15.191Z,91.43
2017-02-20T12:04:25.899Z,91.62
2017-02-20T12:05:36.598Z,91.71
2017-02-20T12:06:47.320Z,92.09
2017-02-20T12:07:58.033Z,91.86
2017-02-20T12:09:08.734Z,92.24
2017-02-20T12:10:18.663Z,92.19
2017-02-20T12:11:29.373Z,92.19
2017-02-20T12:12:39.711Z,91.62
2017-02-20T12:13:50.407Z,91.9
2017-02-20T12:15:01.135Z,92.28
2017-02-20T12:16:11.856Z,92.61
2017-02-20T12:17:22.170Z,92.99
2017-02-20T12:18:32.900Z,93.18
2017-02-20T12:19:42.828Z,92.99
2017-02-20T12:20:53.541Z,93.94
2017-02-20T12:22:04.279Z,94.04
2017-02-20T12:23:16.601Z,93.56
2017-02-20T12:24:27.330Z,93.75
2017-02-20T12:25:38.060Z,94.04
2017-02-20T12:26:48.385Z,93.56
2017-02-20T12:27:59.122Z,94.04
2017-02-20T12:29:09.837Z,94.7
2017-02-20T12:30:20.158Z,94.6
2017-02-20T12:31:30.858Z,94.7
2017-02-20T12:32:41.204Z,94.51
2017-02-20T12:33:51.906Z,94.79
2017-02-20T12:35:04.534Z,94.04
2017-02-20T12:36:14.448Z,93.84
2017-02-20T12:37:24.766Z,94.23
2017-02-20T12:38:35.477Z,94.04
2017-02-20T12:39:45.790Z,93.94
2017-02-20T12:40:56.495Z,92.99
2017-02-20T12:42:06.801Z,93.13
2017-02-20T12:43:17.503Z,93.23
2017-02-20T12:44:28.220Z,92.76
2017-02-20T12:45:38.942Z,92.38
2017-02-20T12:46:49.242Z,92.19
2017-02-20T12:47:59.965Z,92
2017-02-20T12:49:10.687Z,92.28
2017-02-20T12:50:21.392Z,92.47
2017-02-20T12:51:32.107Z,92.57
2017-02-20T12:52:42.819Z,92.57
2017-02-20T12:53:53.538Z,92.85
2017-02-20T12:55:04.252Z,92.94
2017-02-20T12:56:14.959Z,92.57
2017-02-20T12:57:25.677Z,92.57
2017-02-20T12:58:36.386Z,92.76
2017-02-20T12:59:46.699Z,92.66
2017-02-20T13:00:57.022Z,92.76
2017-02-20T13:02:07.349Z,93.23
2017-02-20T13:03:17.658Z,92.8
2017-02-20T13:04:28.376Z,93.13
2017-02-20T13:05:39.082Z,93.8
2017-02-20T13:06:49.408Z,93.65
2017-02-20T13:08:00.120Z,93.13
2017-02-20T13:09:10.436Z,92.99
2017-02-20T13:10:21.168Z,93.04
2017-02-20T13:11:31.492Z,93.75
2017-02-20T13:12:41.423Z,94.04
2017-02-20T13:13:52.137Z,94.51
2017-02-20T13:15:02.460Z,94.98
2017-02-20T13:16:12.381Z,94.32
2017-02-20T13:17:23.138Z,94.23
2017-02-20T13:18:33.865Z,94.04
2017-02-20T13:19:44.611Z,94.04
2017-02-20T13:20:54.958Z,94.08
2017-02-20T13:22:05.711Z,93.89
2017-02-20T13:23:16.442Z,94.84
2017-02-20T13:24:27.160Z,94.98
2017-02-20T13:25:37.894Z,95.36
2017-02-20T13:26:48.208Z,95.07
2017-02-20T13:27:58.928Z,94.89
2017-02-20T13:29:09.642Z,95.17
2017-02-20T13:30:20.363Z,94.32
2017-02-20T13:31:31.068Z,94.84
2017-02-20T13:32:41.384Z,93.99
2017-02-20T13:33:51.699Z,93.61
2017-02-20T13:35:02.415Z,93.61
2017-02-20T13:36:13.119Z,93.61
2017-02-20T13:37:23.825Z,93.04
2017-02-20T13:38:34.534Z,92.76
2017-02-20T13:39:44.858Z,93.04
2017-02-20T13:40:55.578Z,94.18
2017-02-20T13:42:06.289Z,93.99
2017-02-20T13:43:17.008Z,93.8
2017-02-20T13:44:27.324Z,93.99
2017-02-20T13:45:37.651Z,93.99
2017-02-20T13:46:48.388Z,93.89
2017-02-20T13:47:59.095Z,93.84
2017-02-20T13:49:09.803Z,93.89
2017-02-20T13:50:20.505Z,93.99
2017-02-20T13:51:30.882Z,94.56
2017-02-20T13:52:41.190Z,94.08
2017-02-20T13:53:51.106Z,93.94
2017-02-20T13:55:01.812Z,94.08
2017-02-20T13:56:11.322Z,93.8
2017-02-20T13:57:22.047Z,93.8
2017-02-20T13:58:32.357Z,93.99
2017-02-20T13:59:41.901Z,94.08
2017-02-20T14:00:52.616Z,94.18
2017-02-20T14:02:03.317Z,93.89
2017-02-20T14:03:14.061Z,93.7
2017-02-20T14:04:24.770Z,93.32
2017-02-20T14:05:35.491Z,93.89
2017-02-20T14:06:45.807Z,92.85
2017-02-20T14:07:56.506Z,93.04
2017-02-20T14:09:07.208Z,92.66
2017-02-20T14:10:17.519Z,92.85
2017-02-20T14:11:28.238Z,92.76
2017-02-20T14:12:38.953Z,92.66
2017-02-20T14:13:49.687Z,92.33
2017-02-20T14:14:59.996Z,91.57
2017-02-20T14:16:10.725Z,91.76
2017-02-20T14:17:21.456Z,91.76
2017-02-20T14:18:31.361Z,91.38
2017-02-20T14:19:42.070Z,91.38
2017-02-20T14:20:52.778Z,91.66
2017-02-20T14:22:03.495Z,91.57
2017-02-20T14:23:13.814Z,90.62
2017-02-20T14:24:24.518Z,90.53
2017-02-20T14:25:35.235Z,90.53
2017-02-20T14:26:45.944Z,90.05
2017-02-20T14:27:56.262Z,90.05
2017-02-20T14:29:06.971Z,89.11
2017-02-20T14:30:17.700Z,89.11
2017-02-20T14:31:28.415Z,89.11
2017-02-20T14:32:38.728Z,89.34
2017-02-20T14:33:49.435Z,88.77
2017-02-20T14:35:00.153Z,88.48
2017-02-20T14:36:10.457Z,89.15
2017-02-20T14:37:21.167Z,88.58
2017-02-20T14:38:31.883Z,88.39
2017-02-20T14:39:42.587Z,89.39
2017-02-20T14:40:53.305Z,89.58
2017-02-20T14:42:04.006Z,89.2
2017-02-20T14:43:14.309Z,89.29
2017-02-20T14:44:25.040Z,89.67
2017-02-20T14:45:35.756Z,89.96
2017-02-20T14:46:46.469Z,89.96
2017-02-20T14:47:57.164Z,89.58
2017-02-20T14:49:07.880Z,90.34
2017-02-20T14:50:18.208Z,90.53
2017-02-20T14:51:28.918Z,90.34
2017-02-20T14:52:39.657Z,90.62
2017-02-20T14:53:50.372Z,91.43
2017-02-20T14:55:01.087Z,91.71
2017-02-20T14:56:10.603Z,92
2017-02-20T14:57:21.311Z,91.52
2017-02-20T14:58:32.025Z,91.71
2017-02-20T14:59:42.781Z,92.28
2017-02-20T15:00:53.106Z,91.62
2017-02-20T15:02:03.918Z,92.38
2017-02-20T15:03:14.233Z,92.47
2017-02-20T15:04:24.956Z,92.28
2017-02-20T15:05:35.300Z,91.9
2017-02-20T15:06:46.008Z,92
2017-02-20T15:07:56.738Z,92.66
2017-02-20T15:09:07.469Z,93.04
2017-02-20T15:10:18.168Z,93.23
2017-02-20T15:11:28.895Z,93.04
2017-02-20T15:12:39.609Z,92.85